createdAt,value
2022-08-03T00:00:35.666Z,101042.37
2022-08-03T00:03:40.684Z,101041.70
2022-08-03T00:06:43.320Z,101046.55
2022-08-03T00:09:42.387Z,101048.15
2022-08-03T00:12:41.727Z,101047.34
2022-08-03T00:15:39.417Z,101045.20
2022-08-03T00:18:34.921Z,101048.52
2022-08-03T00:21:31.233Z,101048.19
2022-08-03T00:24:27.580Z,101048.19
2022-08-03T00:27:21.867Z,101046.62
2022-08-03T00:30:17.707Z,101046.34
2022-08-03T00:33:13.406Z,101047.29
2022-08-03T00:36:09.609Z,101047.20
2022-08-03T00:39:03.813Z,101045.84
2022-08-03T00:41:57.956Z,101046.21
2022-08-03T00:44:54.080Z,101044.24
2022-08-03T00:47:48.380Z,101043.62
2022-08-03T00:50:48.964Z,101044.85
2022-08-03T00:53:49.722Z,101044.55
2022-08-03T00:56:59.787Z,101037.80
2022-08-03T00:59:54.819Z,101038.05
2022-08-03T01:02:50.453Z,101035.09
2022-08-03T01:07:19.547Z,101039.21
2022-08-03T01:10:41.798Z,101039.91
2022-08-03T01:14:01.747Z,101036.04
2022-08-03T01:17:05.503Z,101034.42
2022-08-03T01:20:08.444Z,101035.53
2022-08-03T01:23:41.498Z,101032.83
2022-08-03T01:26:50.457Z,101033.94
2022-08-03T01:29:59.163Z,101034.63
2022-08-03T01:33:02.522Z,101032.80
2022-08-03T01:36:03.637Z,101034.27
2022-08-03T01:39:02.964Z,101034.63
2022-08-03T01:42:06.248Z,101035.21
2022-08-03T01:45:00.672Z,101035.00
2022-08-03T01:47:55.465Z,101033.03
2022-08-03T01:50:51.518Z,101033.60
2022-08-03T01:53:46.429Z,101029.54
2022-08-03T01:56:42.057Z,101027.48
2022-08-03T01:59:37.336Z,101027.23
2022-08-03T02:02:34.370Z,101030.40
2022-08-03T02:05:30.418Z,101031.02
2022-08-03T02:08:28.493Z,101034.21
2022-08-03T02:11:25.846Z,101033.48
2022-08-03T02:14:25.982Z,101031.92
2022-08-03T02:17:38.504Z,101028.59
2022-08-03T02:20:39.179Z,101030.36
2022-08-03T02:23:35.477Z,101029.46
2022-08-03T02:26:32.921Z,101028.45
2022-08-03T02:29:40.353Z,101026.86
2022-08-03T02:32:41.065Z,101028.42
2022-08-03T02:35:36.220Z,101027.02
2022-08-03T02:38:35.346Z,101026.48
2022-08-03T02:41:36.637Z,101023.52
2022-08-03T02:44:37.960Z,101020.98
2022-08-03T02:47:53.378Z,101018.92
2022-08-03T02:50:49.737Z,101027.80
2022-08-03T02:53:44.061Z,101025.30
2022-08-03T02:56:39.405Z,101029.77
2022-08-03T02:59:34.968Z,101028.17
2022-08-03T03:02:35.025Z,101026.36
2022-08-03T03:05:56.761Z,101026.06
2022-08-03T03:08:55.525Z,101027.67
2022-08-03T03:11:57.916Z,101026.28
2022-08-03T03:14:58.753Z,101024.30
2022-08-03T03:17:57.465Z,101023.92
2022-08-03T03:21:05.912Z,101024.13
2022-08-03T03:24:00.341Z,101027.22
2022-08-03T03:26:55.058Z,101026.65
2022-08-03T03:29:51.081Z,101029.89
2022-08-03T03:32:48.821Z,101028.45
2022-08-03T03:35:47.217Z,101027.95
2022-08-03T03:38:43.838Z,101028.85
2022-08-03T03:41:39.474Z,101028.86
2022-08-03T03:44:34.994Z,101027.80
2022-08-03T03:47:32.737Z,101032.73
2022-08-03T03:50:29.563Z,101034.14
2022-08-03T03:53:24.902Z,101036.73
2022-08-03T03:56:21.233Z,101039.61
2022-08-03T03:59:18.777Z,101040.97
2022-08-03T04:02:14.471Z,101050.02
2022-08-03T04:05:32.221Z,101045.58
2022-08-03T04:08:50.159Z,101055.23
2022-08-03T04:11:58.051Z,101058.19
2022-08-03T04:15:00.558Z,101056.59
2022-08-03T04:18:00.558Z,101061.07
2022-08-03T04:20:58.116Z,101059.83
2022-08-03T04:23:57.385Z,101057.81
2022-08-03T04:26:55.106Z,101059.05
2022-08-03T04:29:54.918Z,101062.96
2022-08-03T04:32:52.629Z,101062.91
2022-08-03T04:35:59.783Z,101067.12
2022-08-03T04:39:04.732Z,101073.94
2022-08-03T04:42:08.073Z,101076.58
2022-08-03T04:45:10.078Z,101077.07
2022-08-03T04:48:09.360Z,101080.08
2022-08-03T04:51:11.432Z,101083.44
2022-08-03T04:54:08.586Z,101084.55
2022-08-03T04:57:05.721Z,101085.57
2022-08-03T05:00:11.914Z,101088.80
2022-08-03T05:03:20.433Z,101087.42
2022-08-03T05:06:35.647Z,101090.67
2022-08-03T05:10:01.865Z,101092.42
2022-08-03T05:13:06.126Z,101091.74
2022-08-03T05:16:09.133Z,101095.86
2022-08-03T05:19:13.379Z,101100.95
2022-08-03T05:22:13.565Z,101102.75
2022-08-03T05:25:19.218Z,101105.51
2022-08-03T05:28:18.857Z,101106.77
2022-08-03T05:31:17.852Z,101104.67
2022-08-03T05:34:16.154Z,101103.89
2022-08-03T05:37:20.498Z,101101.14
2022-08-03T05:40:19.775Z,101100.70
2022-08-03T05:43:19.184Z,101101.08
2022-08-03T05:46:30.502Z,101102.10
2022-08-03T05:49:38.087Z,101101.30
2022-08-03T05:52:38.438Z,101100.70
2022-08-03T05:55:41.336Z,101105.00
2022-08-03T05:58:40.115Z,101110.88
2022-08-03T06:01:47.982Z,101113.34
2022-08-03T06:05:04.571Z,101115.52
2022-08-03T06:08:07.310Z,101114.48
2022-08-03T06:11:12.179Z,101110.28
2022-08-03T06:14:13.119Z,101110.91
2022-08-03T06:17:23.170Z,101111.82
2022-08-03T06:20:28.414Z,101114.41
2022-08-03T06:23:53.466Z,101113.42
2022-08-03T06:26:53.160Z,101116.67
2022-08-03T06:29:52.046Z,101115.47
2022-08-03T06:32:52.063Z,101118.27
2022-08-03T06:36:00.258Z,101116.70
2022-08-03T06:39:02.129Z,101119.40
2022-08-03T06:42:05.110Z,101116.66
2022-08-03T06:45:05.074Z,101118.66
2022-08-03T06:48:12.942Z,101120.77
2022-08-03T06:51:12.584Z,101119.94
2022-08-03T06:54:28.372Z,101117.52
2022-08-03T06:57:29.903Z,101116.17
2022-08-03T07:00:34.869Z,101115.15
2022-08-03T07:03:34.365Z,101122.92
2022-08-03T07:06:42.600Z,101129.46
2022-08-03T07:09:57.367Z,101132.21
2022-08-03T07:13:08.440Z,101134.77
2022-08-03T07:16:21.962Z,101139.30
2022-08-03T07:19:27.390Z,101139.07
2022-08-03T07:22:36.171Z,101139.64
2022-08-03T07:25:43.560Z,101142.60
2022-08-03T07:28:45.913Z,101139.52
2022-08-03T07:31:49.197Z,101139.73
2022-08-03T07:35:00.355Z,101134.33
2022-08-03T07:38:10.574Z,101132.08
2022-08-03T07:41:15.300Z,101124.67
2022-08-03T07:44:22.595Z,101124.36
2022-08-03T07:47:26.349Z,101124.04
2022-08-03T07:50:39.783Z,101120.84
2022-08-03T07:53:47.292Z,101118.58
2022-08-03T07:57:08.573Z,101117.70
2022-08-03T08:00:20.106Z,101118.69
2022-08-03T08:03:41.971Z,101123.46
2022-08-03T08:06:56.638Z,101113.94
2022-08-03T08:10:01.381Z,101115.19
2022-08-03T08:13:14.643Z,101118.33
2022-08-03T08:16:14.363Z,101122.89
2022-08-03T08:19:23.584Z,101120.88
2022-08-03T08:22:30.363Z,101121.80
2022-08-03T08:25:39.352Z,101119.21
2022-08-03T08:28:55.436Z,101119.34
2022-08-03T08:31:59.573Z,101115.11
2022-08-03T08:35:13.613Z,101120.58
2022-08-03T08:38:14.412Z,101118.70
2022-08-03T08:41:18.065Z,101113.80
2022-08-03T08:44:27.615Z,101112.67
2022-08-03T08:47:51.243Z,101119.55
2022-08-03T08:51:09.805Z,101118.45
2022-08-03T08:54:11.557Z,101113.97
2022-08-03T08:57:26.835Z,101115.14
2022-08-03T09:00:38.453Z,101116.61
2022-08-03T09:03:55.634Z,101111.84
2022-08-03T09:07:20.108Z,101113.17
2022-08-03T09:10:29.622Z,101114.33
2022-08-03T09:13:37.820Z,101120.30
2022-08-03T09:16:48.623Z,101118.08
2022-08-03T09:20:14.528Z,101116.60
2022-08-03T09:23:59.806Z,101112.61
2022-08-03T09:26:56.429Z,101115.41
2022-08-03T09:29:59.106Z,101115.88
2022-08-03T09:33:08.299Z,101109.55
2022-08-03T09:36:15.264Z,101106.23
2022-08-03T09:39:41.631Z,101102.91
2022-08-03T09:42:47.630Z,101101.30
2022-08-03T09:45:55.877Z,101101.35
2022-08-03T09:49:13.868Z,101103.33
2022-08-03T09:52:38.215Z,101105.21
2022-08-03T09:56:35.167Z,101106.66
2022-08-03T09:59:39.103Z,101102.92
2022-08-03T10:02:49.057Z,101099.92
2022-08-03T10:05:59.993Z,101093.20
2022-08-03T10:09:20.266Z,101096.33
2022-08-03T10:12:32.634Z,101094.88
2022-08-03T10:16:23.400Z,101100.85
2022-08-03T10:19:05.446Z,101100.97
2022-08-03T10:22:14.534Z,101094.89
2022-08-03T10:25:21.550Z,101088.64
2022-08-03T10:28:45.473Z,101089.48
2022-08-03T10:32:05.517Z,101085.77
2022-08-03T10:35:20.412Z,101086.06
2022-08-03T10:38:27.698Z,101093.84
2022-08-03T10:41:38.394Z,101087.51
2022-08-03T10:44:50.725Z,101086.43
2022-08-03T10:48:00.169Z,101085.41
2022-08-03T10:51:14.771Z,101082.13
2022-08-03T10:55:07.810Z,101076.79
2022-08-03T10:58:30.518Z,101086.53
2022-08-03T11:02:01.087Z,101088.23
2022-08-03T11:05:37.970Z,101081.08
2022-08-03T11:08:43.650Z,101080.26
2022-08-03T11:11:49.675Z,101073.09
2022-08-03T11:14:57.223Z,101079.27
2022-08-03T11:18:19.699Z,101073.02
2022-08-03T11:21:34.625Z,101074.23
2022-08-03T11:25:53.719Z,101073.08
2022-08-03T11:28:49.896Z,101067.93
2022-08-03T11:31:56.685Z,101065.92
2022-08-03T11:35:20.805Z,101064.77
2022-08-03T11:38:34.528Z,101059.02
2022-08-03T11:41:43.355Z,101059.10
2022-08-03T11:44:52.926Z,101063.63
2022-08-03T11:48:02.356Z,101066.59
2022-08-03T11:51:27.641Z,101067.79
2022-08-03T11:54:38.766Z,101061.83
2022-08-03T11:59:17.314Z,101060.31
2022-08-03T12:01:24.956Z,101053.66
2022-08-03T12:04:34.689Z,101052.30
2022-08-03T12:08:03.665Z,101048.11
2022-08-03T12:11:00.151Z,101043.92
2022-08-03T12:14:50.841Z,101037.46
2022-08-03T12:17:47.701Z,101035.52
2022-08-03T12:21:09.095Z,101033.70
2022-08-03T12:24:23.068Z,101035.20
2022-08-03T12:27:35.125Z,101035.83
2022-08-03T12:30:40.780Z,101032.00
2022-08-03T12:34:09.748Z,101033.00
2022-08-03T12:37:21.898Z,101036.50
2022-08-03T12:40:36.883Z,101031.77
2022-08-03T12:43:58.117Z,101030.58
2022-08-03T12:47:08.458Z,101027.13
2022-08-03T12:50:12.504Z,101027.61
2022-08-03T12:53:35.547Z,101026.64
2022-08-03T12:56:36.829Z,101026.94
2022-08-03T12:59:52.780Z,101023.85
2022-08-03T13:06:48.786Z,101017.27
2022-08-03T13:10:31.508Z,101016.95
2022-08-03T13:13:51.362Z,101014.77
2022-08-03T13:17:02.749Z,101011.85
2022-08-03T13:20:19.773Z,101008.60
2022-08-03T13:23:22.144Z,101014.03
2022-08-03T13:26:42.801Z,101006.36
2022-08-03T13:29:45.520Z,101009.68
2022-08-03T13:33:00.770Z,101007.13
2022-08-03T13:36:03.762Z,101004.00
2022-08-03T13:39:14.011Z,100999.55
2022-08-03T13:42:24.868Z,101002.33
2022-08-03T13:45:31.880Z,101004.39
2022-08-03T13:48:40.346Z,101002.53
2022-08-03T13:51:51.946Z,101003.56
2022-08-03T13:54:55.139Z,101001.66
2022-08-03T13:58:07.259Z,100993.84
2022-08-03T14:01:14.923Z,100990.76
2022-08-03T14:04:27.776Z,100999.65
2022-08-03T14:07:39.789Z,100996.90
2022-08-03T14:10:49.569Z,100996.48
2022-08-03T14:13:53.811Z,100995.05
2022-08-03T14:17:04.425Z,100995.70
2022-08-03T14:20:37.228Z,100991.39
2022-08-03T14:23:45.822Z,100987.61
2022-08-03T14:26:49.605Z,100983.09
2022-08-03T14:29:52.409Z,100980.54
2022-08-03T14:33:00.816Z,100980.66
2022-08-03T14:36:10.693Z,100979.02
2022-08-03T14:39:22.989Z,100974.20
2022-08-03T14:42:23.189Z,100969.92
2022-08-03T14:45:31.183Z,100968.84
2022-08-03T14:50:30.062Z,100968.64
2022-08-03T14:52:06.885Z,100969.01
2022-08-03T14:55:08.483Z,100965.23
2022-08-03T14:58:22.171Z,100964.48
2022-08-03T15:02:02.674Z,100960.20
2022-08-03T15:04:55.668Z,100963.09
2022-08-03T15:07:59.447Z,100960.33
2022-08-03T15:11:14.052Z,100960.16
2022-08-03T15:14:33.175Z,100960.70
2022-08-03T15:17:43.152Z,100956.92
2022-08-03T15:21:46.131Z,100956.75
2022-08-03T15:24:34.784Z,100950.13
2022-08-03T15:28:03.983Z,100946.95
2022-08-03T15:31:18.808Z,100948.13
2022-08-03T15:34:33.012Z,100949.55
2022-08-03T15:37:31.302Z,100942.52
2022-08-03T15:40:37.549Z,100944.09
2022-08-03T15:43:47.669Z,100944.30
2022-08-03T15:46:59.688Z,100946.02
2022-08-03T15:50:06.609Z,100941.48
2022-08-03T15:53:20.866Z,100939.36
2022-08-03T15:56:27.640Z,100939.07
2022-08-03T15:59:34.592Z,100935.46
2022-08-03T16:02:41.611Z,100930.52
2022-08-03T16:05:46.521Z,100924.23
2022-08-03T16:08:47.956Z,100929.63
2022-08-03T16:11:53.023Z,100926.04
2022-08-03T16:14:56.769Z,100925.83
2022-08-03T16:17:59.845Z,100927.15
2022-08-03T16:21:07.757Z,100926.02
2022-08-03T16:24:27.945Z,100922.92
2022-08-03T16:28:03.277Z,100921.69
2022-08-03T16:31:03.831Z,100921.56
2022-08-03T16:34:15.030Z,100923.38
2022-08-03T16:37:38.267Z,100917.95
2022-08-03T16:40:43.941Z,100919.77
2022-08-03T16:44:05.430Z,100923.42
2022-08-03T16:47:21.936Z,100921.77
2022-08-03T16:50:34.772Z,100920.59
2022-08-03T16:54:05.776Z,100917.09
2022-08-03T16:57:59.408Z,100919.52
2022-08-03T17:00:54.714Z,100922.44
2022-08-03T17:04:06.703Z,100920.22
2022-08-03T17:07:12.331Z,100925.98
2022-08-03T17:10:26.995Z,100926.48
2022-08-03T17:13:39.723Z,100926.48
2022-08-03T17:16:52.549Z,100929.41
2022-08-03T17:19:59.660Z,100927.36
2022-08-03T17:23:34.600Z,100930.45
2022-08-03T17:26:50.202Z,100935.54
2022-08-03T17:29:58.393Z,100935.96
2022-08-03T17:33:02.896Z,100935.30
2022-08-03T17:36:07.077Z,100942.34
2022-08-03T17:39:55.820Z,100937.86
2022-08-03T17:42:59.911Z,100939.96
2022-08-03T17:46:19.683Z,100942.19
2022-08-03T17:49:24.921Z,100944.86
2022-08-03T17:52:37.370Z,100949.48
2022-08-03T17:55:58.826Z,100950.92
2022-08-03T17:59:08.226Z,100953.05
2022-08-03T18:02:51.519Z,100955.36
2022-08-03T18:06:11.787Z,100951.86
2022-08-03T18:10:03.771Z,100950.73
2022-08-03T18:13:00.016Z,100953.97
2022-08-03T18:16:11.778Z,100952.27
2022-08-03T18:19:18.897Z,100949.60
2022-08-03T18:22:33.956Z,100949.85
2022-08-03T18:25:53.639Z,100950.96
2022-08-03T18:29:11.203Z,100949.95
2022-08-03T18:32:19.691Z,100953.17
2022-08-03T18:35:24.759Z,100952.77
2022-08-03T18:38:31.510Z,100958.15
2022-08-03T18:41:46.637Z,100957.98
2022-08-03T18:45:55.026Z,100964.61
2022-08-03T18:48:34.435Z,100970.95
2022-08-03T18:51:54.944Z,100972.27
2022-08-03T18:55:20.727Z,100969.11
2022-08-03T18:59:02.185Z,100975.61
2022-08-03T19:02:10.722Z,100975.48
2022-08-03T19:05:57.735Z,100974.45
2022-08-03T19:09:12.975Z,100976.18
2022-08-03T19:12:39.555Z,100977.48
2022-08-03T19:15:52.962Z,100977.56
2022-08-03T19:19:10.974Z,100980.12
2022-08-03T19:22:28.315Z,100979.80
2022-08-03T19:25:45.362Z,100981.52
2022-08-03T19:29:02.806Z,100981.77
2022-08-03T19:32:14.178Z,100980.23
2022-08-03T19:35:51.654Z,100985.09
2022-08-03T19:38:46.576Z,100982.83
2022-08-03T19:41:58.422Z,100983.19
2022-08-03T19:45:14.636Z,100984.81
2022-08-03T19:48:22.366Z,100986.66
2022-08-03T19:52:01.827Z,100988.99
2022-08-03T19:55:03.986Z,100992.58
2022-08-03T19:58:05.765Z,100989.58
2022-08-03T20:01:21.197Z,100991.77
2022-08-03T20:04:23.928Z,100989.52
2022-08-03T20:07:28.940Z,100989.00
2022-08-03T20:10:42.902Z,100993.68
2022-08-03T20:13:50.601Z,100991.55
2022-08-03T20:17:02.166Z,100993.16
2022-08-03T20:20:10.939Z,100995.70
2022-08-03T20:23:37.158Z,100998.70
2022-08-03T20:26:47.162Z,101002.45
2022-08-03T20:30:07.125Z,100999.24
2022-08-03T20:33:12.613Z,100998.00
2022-08-03T20:39:56.561Z,100996.73
2022-08-03T20:42:57.862Z,100998.64
2022-08-03T20:46:32.658Z,100998.75
2022-08-03T20:49:45.675Z,100998.55
2022-08-03T20:52:49.659Z,101004.23
2022-08-03T20:56:03.046Z,101004.52
2022-08-03T20:59:15.201Z,101004.55
2022-08-03T21:02:29.563Z,101008.10
2022-08-03T21:05:51.363Z,101006.04
2022-08-03T21:09:04.075Z,101003.58
2022-08-03T21:12:17.924Z,101001.84
2022-08-03T21:13:07.170Z,100993.40
2022-08-03T21:16:04.760Z,101008.27
2022-08-03T21:18:49.706Z,101006.33
2022-08-03T21:21:48.738Z,101009.98
2022-08-03T21:25:00.267Z,101008.55
2022-08-03T21:28:07.217Z,101012.86
2022-08-03T21:31:05.786Z,101016.20
2022-08-03T21:34:14.099Z,101019.64
2022-08-03T21:37:24.753Z,101016.89
2022-08-03T21:40:22.343Z,101017.30
2022-08-03T21:43:20.944Z,101015.65
2022-08-03T21:46:27.033Z,101019.11
2022-08-03T21:50:04.479Z,101016.15
2022-08-03T21:52:52.850Z,101015.93
2022-08-03T21:55:56.169Z,101015.73
2022-08-03T21:59:01.230Z,101013.30
2022-08-03T22:01:58.924Z,101013.02
2022-08-03T22:04:57.654Z,101007.79
2022-08-03T22:08:03.586Z,101006.84
2022-08-03T22:11:05.048Z,101011.05
2022-08-03T22:14:11.935Z,101014.29
2022-08-03T22:17:10.501Z,101011.34
2022-08-03T22:20:12.688Z,101012.64
2022-08-03T22:23:16.395Z,101010.67
2022-08-03T22:26:34.831Z,101005.39
2022-08-03T22:29:33.867Z,101004.90
2022-08-03T22:32:34.326Z,101006.59
2022-08-03T22:35:32.038Z,101007.70
2022-08-03T22:38:42.493Z,101010.78
2022-08-03T22:41:45.215Z,101013.14
2022-08-03T22:44:45.006Z,101014.94
2022-08-03T22:47:45.275Z,101014.08
2022-08-03T22:50:43.275Z,101013.95
2022-08-03T22:53:40.683Z,101020.63
2022-08-03T22:56:38.825Z,101019.05
2022-08-03T22:59:40.012Z,101024.16
2022-08-03T23:02:50.570Z,101023.58
2022-08-03T23:06:00.477Z,101022.38
2022-08-03T23:09:01.648Z,101022.88
2022-08-03T23:12:04.737Z,101022.09
2022-08-03T23:15:04.743Z,101018.14
2022-08-03T23:18:08.367Z,101019.25
2022-08-03T23:21:11.209Z,101017.73
2022-08-03T23:24:17.635Z,101022.00
2022-08-03T23:27:25.634Z,101021.89
2022-08-03T23:30:20.871Z,101018.70
2022-08-03T23:33:30.078Z,101012.86
2022-08-03T23:36:31.835Z,101013.59
2022-08-03T23:39:29.548Z,101014.91
2022-08-03T23:42:30.449Z,101012.40
2022-08-03T23:45:25.110Z,101013.02
2022-08-03T23:48:20.145Z,101016.80
2022-08-03T23:51:37.733Z,101017.26
2022-08-03T23:54:41.856Z,101014.55
2022-08-03T23:57:47.897Z,101011.77
